sensor_id;sensor_type;location;lat;lon;timestamp;P1;durP1;ratioP1;P2;durP2;ratioP2
53391;SDS011;41667;51.922;8.850;2024-02-16T00:02:26;3.33;;;1.75;;
53391;SDS011;41667;51.922;8.850;2024-02-16T00:04:51;4.20;;;1.60;;
53391;SDS011;41667;51.922;8.850;2024-02-16T00:07:16;4.38;;;1.75;;
53391;SDS011;41667;51.922;8.850;2024-02-16T00:09:41;2.30;;;1.40;;
53391;SDS011;41667;51.922;8.850;2024-02-16T00:12:07;2.47;;;1.98;;
53391;SDS011;41667;51.922;8.850;2024-02-16T00:14:32;2.60;;;2.03;;
53391;SDS011;41667;51.922;8.850;2024-02-16T00:16:57;2.85;;;2.00;;
53391;SDS011;41667;51.922;8.850;2024-02-16T00:19:23;2.83;;;1.60;;
53391;SDS011;41667;51.922;8.850;2024-02-16T00:21:48;8.35;;;1.80;;
53391;SDS011;41667;51.922;8.850;2024-02-16T00:24:16;6.35;;;2.03;;
53391;SDS011;41667;51.922;8.850;2024-02-16T00:26:41;12.35;;;2.28;;
53391;SDS011;41667;51.922;8.850;2024-02-16T00:29:08;2.13;;;1.80;;
53391;SDS011;41667;51.922;8.850;2024-02-16T00:31:33;1.65;;;1.55;;
53391;SDS011;41667;51.922;8.850;2024-02-16T00:33:58;4.15;;;1.63;;
53391;SDS011;41667;51.922;8.850;2024-02-16T00:36:25;2.72;;;2.25;;
53391;SDS011;41667;51.922;8.850;2024-02-16T00:38:51;6.80;;;3.30;;
53391;SDS011;41667;51.922;8.850;2024-02-16T00:41:17;3.72;;;1.55;;
53391;SDS011;41667;51.922;8.850;2024-02-16T00:43:43;3.70;;;1.77;;
53391;SDS011;41667;51.922;8.850;2024-02-16T00:46:09;5.82;;;2.08;;
53391;SDS011;41667;51.922;8.850;2024-02-16T00:48:35;3.47;;;2.20;;
53391;SDS011;41667;51.922;8.850;2024-02-16T00:51:00;1.88;;;1.65;;
53391;SDS011;41667;51.922;8.850;2024-02-16T00:53:25;4.95;;;2.17;;
53391;SDS011;41667;51.922;8.850;2024-02-16T00:55:51;2.95;;;2.35;;
53391;SDS011;41667;51.922;8.850;2024-02-16T00:58:16;3.85;;;2.08;;
53391;SDS011;41667;51.922;8.850;2024-02-16T01:00:42;4.10;;;2.28;;
53391;SDS011;41667;51.922;8.850;2024-02-16T01:03:08;6.07;;;3.38;;
53391;SDS011;41667;51.922;8.850;2024-02-16T01:05:33;3.17;;;2.42;;
53391;SDS011;41667;51.922;8.850;2024-02-16T01:08:00;2.65;;;2.15;;
53391;SDS011;41667;51.922;8.850;2024-02-16T01:10:25;2.10;;;1.90;;
53391;SDS011;41667;51.922;8.850;2024-02-16T01:12:51;2.95;;;2.28;;
53391;SDS011;41667;51.922;8.850;2024-02-16T01:15:17;3.38;;;1.90;;
53391;SDS011;41667;51.922;8.850;2024-02-16T01:17:43;4.43;;;2.70;;
53391;SDS011;41667;51.922;8.850;2024-02-16T01:20:08;4.60;;;2.50;;
53391;SDS011;41667;51.922;8.850;2024-02-16T01:22:37;2.35;;;2.15;;
53391;SDS011;41667;51.922;8.850;2024-02-16T01:25:03;2.50;;;2.40;;
53391;SDS011;41667;51.922;8.850;2024-02-16T01:27:28;5.32;;;2.58;;
53391;SDS011;41667;51.922;8.850;2024-02-16T01:29:53;6.45;;;2.92;;
53391;SDS011;41667;51.922;8.850;2024-02-16T01:32:19;3.53;;;2.55;;
53391;SDS011;41667;51.922;8.850;2024-02-16T01:34:44;3.58;;;2.42;;
53391;SDS011;41667;51.922;8.850;2024-02-16T01:37:12;2.95;;;2.50;;
53391;SDS011;41667;51.922;8.850;2024-02-16T01:39:37;3.28;;;2.35;;
53391;SDS011;41667;51.922;8.850;2024-02-16T01:42:02;5.57;;;2.92;;
53391;SDS011;41667;51.922;8.850;2024-02-16T01:44:28;4.80;;;2.67;;
53391;SDS011;41667;51.922;8.850;2024-02-16T01:46:53;2.33;;;2.00;;
53391;SDS011;41667;51.922;8.850;2024-02-16T01:49:18;4.70;;;2.42;;
53391;SDS011;41667;51.922;8.850;2024-02-16T01:51:44;2.28;;;2.13;;
53391;SDS011;41667;51.922;8.850;2024-02-16T01:54:12;3.72;;;2.38;;
53391;SDS011;41667;51.922;8.850;2024-02-16T01:56:37;3.83;;;2.00;;
53391;SDS011;41667;51.922;8.850;2024-02-16T01:59:02;2.03;;;1.73;;
53391;SDS011;41667;51.922;8.850;2024-02-16T02:01:28;2.08;;;1.90;;
53391;SDS011;41667;51.922;8.850;2024-02-16T02:03:54;5.07;;;2.08;;
53391;SDS011;41667;51.922;8.850;2024-02-16T02:06:20;2.78;;;2.05;;
53391;SDS011;41667;51.922;8.850;2024-02-16T02:08:46;7.45;;;2.13;;
53391;SDS011;41667;51.922;8.850;2024-02-16T02:11:11;2.45;;;2.22;;
53391;SDS011;41667;51.922;8.850;2024-02-16T02:13:37;2.53;;;2.00;;
53391;SDS011;41667;51.922;8.850;2024-02-16T02:16:02;4.00;;;2.40;;
53391;SDS011;41667;51.922;8.850;2024-02-16T02:18:28;2.83;;;1.67;;
53391;SDS011;41667;51.922;8.850;2024-02-16T02:20:53;1.90;;;1.77;;
53391;SDS011;41667;51.922;8.850;2024-02-16T02:23:19;2.42;;;1.90;;
53391;SDS011;41667;51.922;8.850;2024-02-16T02:25:44;2.47;;;1.98;;
53391;SDS011;41667;51.922;8.850;2024-02-16T02:28:10;4.93;;;1.98;;
53391;SDS011;41667;51.922;8.850;2024-02-16T02:30:35;2.53;;;2.03;;
53391;SDS011;41667;51.922;8.850;2024-02-16T02:33:00;6.00;;;2.13;;
53391;SDS011;41667;51.922;8.850;2024-02-16T02:35:25;5.65;;;2.08;;
53391;SDS011;41667;51.922;8.850;2024-02-16T02:37:51;2.13;;;1.80;;
53391;SDS011;41667;51.922;8.850;2024-02-16T02:40:16;3.00;;;2.03;;
53391;SDS011;41667;51.922;8.850;2024-02-16T02:42:42;3.47;;;2.13;;
53391;SDS011;41667;51.922;8.850;2024-02-16T02:45:07;5.57;;;2.80;;
53391;SDS011;41667;51.922;8.850;2024-02-16T02:47:33;3.47;;;2.47;;
53391;SDS011;41667;51.922;8.850;2024-02-16T02:49:58;5.70;;;2.58;;
53391;SDS011;41667;51.922;8.850;2024-02-16T02:52:23;2.85;;;2.58;;
53391;SDS011;41667;51.922;8.850;2024-02-16T02:54:48;3.15;;;2.67;;
53391;SDS011;41667;51.922;8.850;2024-02-16T02:57:14;3.00;;;2.80;;
53391;SDS011;41667;51.922;8.850;2024-02-16T02:59:39;4.40;;;2.88;;
53391;SDS011;41667;51.922;8.850;2024-02-16T03:02:04;3.90;;;2.80;;
53391;SDS011;41667;51.922;8.850;2024-02-16T03:04:30;3.20;;;2.80;;
53391;SDS011;41667;51.922;8.850;2024-02-16T03:06:55;6.90;;;2.65;;
53391;SDS011;41667;51.922;8.850;2024-02-16T03:09:21;7.85;;;2.63;;
53391;SDS011;41667;51.922;8.850;2024-02-16T03:11:47;4.13;;;2.30;;
53391;SDS011;41667;51.922;8.850;2024-02-16T03:14:13;2.72;;;2.50;;
53391;SDS011;41667;51.922;8.850;2024-02-16T03:16:38;3.55;;;2.88;;
53391;SDS011;41667;51.922;8.850;2024-02-16T03:19:05;6.22;;;2.35;;
53391;SDS011;41667;51.922;8.850;2024-02-16T03:21:31;3.25;;;2.45;;
53391;SDS011;41667;51.922;8.850;2024-02-16T03:23:57;2.42;;;2.22;;
53391;SDS011;41667;51.922;8.850;2024-02-16T03:26:23;6.78;;;3.28;;
53391;SDS011;41667;51.922;8.850;2024-02-16T03:31:18;5.93;;;2.63;;
53391;SDS011;41667;51.922;8.850;2024-02-16T03:33:45;5.82;;;2.67;;
53391;SDS011;41667;51.922;8.850;2024-02-16T03:36:10;3.13;;;2.30;;
53391;SDS011;41667;51.922;8.850;2024-02-16T03:38:37;5.07;;;2.50;;
53391;SDS011;41667;51.922;8.850;2024-02-16T03:41:03;6.25;;;2.92;;
53391;SDS011;41667;51.922;8.850;2024-02-16T03:43:29;2.53;;;2.25;;
53391;SDS011;41667;51.922;8.850;2024-02-16T03:45:54;2.88;;;2.67;;
53391;SDS011;41667;51.922;8.850;2024-02-16T03:48:19;2.13;;;1.90;;
53391;SDS011;41667;51.922;8.850;2024-02-16T03:50:45;3.20;;;2.00;;
53391;SDS011;41667;51.922;8.850;2024-02-16T03:53:11;3.22;;;2.00;;
53391;SDS011;41667;51.922;8.850;2024-02-16T03:55:36;2.05;;;1.88;;
53391;SDS011;41667;51.922;8.850;2024-02-16T03:58:03;3.33;;;2.45;;
53391;SDS011;41667;51.922;8.850;2024-02-16T04:00:28;2.38;;;2.17;;
53391;SDS011;41667;51.922;8.850;2024-02-16T04:02:54;4.22;;;2.05;;
53391;SDS011;41667;51.922;8.850;2024-02-16T04:05:19;1.88;;;1.73;;
53391;SDS011;41667;51.922;8.850;2024-02-16T04:07:44;4.38;;;1.95;;
53391;SDS011;41667;51.922;8.850;2024-02-16T04:10:09;2.75;;;2.05;;
53391;SDS011;41667;51.922;8.850;2024-02-16T04:12:35;5.47;;;2.25;;
53391;SDS011;41667;51.922;8.850;2024-02-16T04:15:01;3.88;;;2.58;;
53391;SDS011;41667;51.922;8.850;2024-02-16T04:17:27;2.60;;;2.20;;
53391;SDS011;41667;51.922;8.850;2024-02-16T04:19:52;2.08;;;1.92;;
53391;SDS011;41667;51.922;8.850;2024-02-16T04:22:17;1.80;;;1.70;;
53391;SDS011;41667;51.922;8.850;2024-02-16T04:24:42;5.80;;;2.35;;
53391;SDS011;41667;51.922;8.850;2024-02-16T04:27:08;1.85;;;1.75;;
53391;SDS011;41667;51.922;8.850;2024-02-16T04:29:33;1.80;;;1.70;;
53391;SDS011;41667;51.922;8.850;2024-02-16T04:31:58;1.95;;;1.65;;
53391;SDS011;41667;51.922;8.850;2024-02-16T04:34:23;2.00;;;1.90;;
53391;SDS011;41667;51.922;8.850;2024-02-16T04:36:49;5.80;;;2.08;;
53391;SDS011;41667;51.922;8.850;2024-02-16T04:39:14;2.40;;;2.20;;
53391;SDS011;41667;51.922;8.850;2024-02-16T04:41:40;3.97;;;2.30;;
53391;SDS011;41667;51.922;8.850;2024-02-16T04:44:05;3.53;;;2.50;;
53391;SDS011;41667;51.922;8.850;2024-02-16T04:46:30;3.15;;;2.80;;
53391;SDS011;41667;51.922;8.850;2024-02-16T04:48:55;4.80;;;2.78;;
53391;SDS011;41667;51.922;8.850;2024-02-16T04:51:21;4.88;;;2.55;;
53391;SDS011;41667;51.922;8.850;2024-02-16T04:53:47;2.47;;;2.28;;
53391;SDS011;41667;51.922;8.850;2024-02-16T04:56:13;3.38;;;2.45;;
53391;SDS011;41667;51.922;8.850;2024-02-16T04:58:41;3.55;;;2.75;;
53391;SDS011;41667;51.922;8.850;2024-02-16T05:01:07;4.90;;;3.25;;
53391;SDS011;41667;51.922;8.850;2024-02-16T05:03:32;5.00;;;3.20;;
53391;SDS011;41667;51.922;8.850;2024-02-16T05:05:57;3.45;;;3.15;;
53391;SDS011;41667;51.922;8.850;2024-02-16T05:08:23;3.17;;;2.50;;
53391;SDS011;41667;51.922;8.850;2024-02-16T05:10:48;5.20;;;3.28;;
53391;SDS011;41667;51.922;8.850;2024-02-16T05:13:13;5.53;;;2.67;;
53391;SDS011;41667;51.922;8.850;2024-02-16T05:15:39;3.85;;;3.03;;
53391;SDS011;41667;51.922;8.850;2024-02-16T05:18:04;3.53;;;3.00;;
53391;SDS011;41667;51.922;8.850;2024-02-16T05:20:29;5.25;;;2.72;;
53391;SDS011;41667;51.922;8.850;2024-02-16T05:22:55;7.18;;;2.65;;
53391;SDS011;41667;51.922;8.850;2024-02-16T05:25:21;6.00;;;2.78;;
53391;SDS011;41667;51.922;8.850;2024-02-16T05:27:47;5.30;;;2.40;;
53391;SDS011;41667;51.922;8.850;2024-02-16T05:30:15;8.43;;;3.10;;
53391;SDS011;41667;51.922;8.850;2024-02-16T05:32:41;3.33;;;2.70;;
53391;SDS011;41667;51.922;8.850;2024-02-16T05:35:06;6.97;;;3.05;;
53391;SDS011;41667;51.922;8.850;2024-02-16T05:37:46;3.40;;;3.10;;
53391;SDS011;41667;51.922;8.850;2024-02-16T05:40:16;3.33;;;2.88;;
53391;SDS011;41667;51.922;8.850;2024-02-16T05:42:52;4.00;;;2.65;;
53391;SDS011;41667;51.922;8.850;2024-02-16T05:45:18;4.10;;;2.85;;
53391;SDS011;41667;51.922;8.850;2024-02-16T05:47:44;4.18;;;3.13;;
53391;SDS011;41667;51.922;8.850;2024-02-16T05:50:11;3.70;;;2.90;;
53391;SDS011;41667;51.922;8.850;2024-02-16T05:52:37;6.65;;;3.33;;
53391;SDS011;41667;51.922;8.850;2024-02-16T05:55:03;5.22;;;3.25;;
53391;SDS011;41667;51.922;8.850;2024-02-16T05:57:29;6.53;;;3.45;;
53391;SDS011;41667;51.922;8.850;2024-02-16T05:59:54;3.80;;;3.50;;
53391;SDS011;41667;51.922;8.850;2024-02-16T06:02:19;5.72;;;3.20;;
53391;SDS011;41667;51.922;8.850;2024-02-16T06:04:45;4.38;;;3.97;;
53391;SDS011;41667;51.922;8.850;2024-02-16T06:07:10;4.63;;;4.18;;
53391;SDS011;41667;51.922;8.850;2024-02-16T06:09:36;5.53;;;4.05;;
53391;SDS011;41667;51.922;8.850;2024-02-16T06:12:04;4.57;;;4.18;;
53391;SDS011;41667;51.922;8.850;2024-02-16T06:14:31;4.22;;;3.83;;
53391;SDS011;41667;51.922;8.850;2024-02-16T06:16:57;6.50;;;3.13;;
53391;SDS011;41667;51.922;8.850;2024-02-16T06:19:22;3.90;;;3.38;;
53391;SDS011;41667;51.922;8.850;2024-02-16T06:21:48;6.43;;;3.90;;
53391;SDS011;41667;51.922;8.850;2024-02-16T06:24:13;7.90;;;4.32;;
53391;SDS011;41667;51.922;8.850;2024-02-16T06:26:38;4.68;;;3.33;;
53391;SDS011;41667;51.922;8.850;2024-02-16T06:29:03;5.97;;;3.90;;
53391;SDS011;41667;51.922;8.850;2024-02-16T06:31:29;2.97;;;2.70;;
53391;SDS011;41667;51.922;8.850;2024-02-16T06:33:54;6.55;;;3.47;;
53391;SDS011;41667;51.922;8.850;2024-02-16T06:36:20;3.47;;;2.85;;
53391;SDS011;41667;51.922;8.850;2024-02-16T06:38:45;4.03;;;2.20;;
53391;SDS011;41667;51.922;8.850;2024-02-16T06:41:12;3.42;;;2.28;;
53391;SDS011;41667;51.922;8.850;2024-02-16T06:43:37;3.35;;;2.00;;
53391;SDS011;41667;51.922;8.850;2024-02-16T06:46:02;8.32;;;2.22;;
53391;SDS011;41667;51.922;8.850;2024-02-16T06:48:28;2.75;;;2.30;;
53391;SDS011;41667;51.922;8.850;2024-02-16T06:50:53;2.58;;;2.05;;
53391;SDS011;41667;51.922;8.850;2024-02-16T06:53:19;3.38;;;2.83;;
53391;SDS011;41667;51.922;8.850;2024-02-16T06:55:44;4.70;;;2.70;;
53391;SDS011;41667;51.922;8.850;2024-02-16T06:58:09;2.47;;;2.03;;
53391;SDS011;41667;51.922;8.850;2024-02-16T07:00:34;3.38;;;2.45;;
53391;SDS011;41667;51.922;8.850;2024-02-16T07:03:00;2.38;;;2.08;;
53391;SDS011;41667;51.922;8.850;2024-02-16T07:05:26;5.10;;;2.38;;
53391;SDS011;41667;51.922;8.850;2024-02-16T07:07:53;4.72;;;2.13;;
53391;SDS011;41667;51.922;8.850;2024-02-16T07:10:18;8.10;;;3.03;;
53391;SDS011;41667;51.922;8.850;2024-02-16T07:12:43;6.18;;;2.70;;
53391;SDS011;41667;51.922;8.850;2024-02-16T07:15:10;2.72;;;2.53;;
53391;SDS011;41667;51.922;8.850;2024-02-16T07:17:35;4.57;;;2.78;;
53391;SDS011;41667;51.922;8.850;2024-02-16T07:20:02;7.35;;;3.30;;
53391;SDS011;41667;51.922;8.850;2024-02-16T07:22:28;7.05;;;3.45;;
53391;SDS011;41667;51.922;8.850;2024-02-16T07:24:54;4.20;;;3.30;;
53391;SDS011;41667;51.922;8.850;2024-02-16T07:27:19;7.15;;;4.20;;
53391;SDS011;41667;51.922;8.850;2024-02-16T07:29:44;12.98;;;4.55;;
53391;SDS011;41667;51.922;8.850;2024-02-16T07:32:10;5.40;;;4.30;;
53391;SDS011;41667;51.922;8.850;2024-02-16T07:34:35;5.13;;;4.68;;
53391;SDS011;41667;51.922;8.850;2024-02-16T07:37:00;5.82;;;3.88;;
53391;SDS011;41667;51.922;8.850;2024-02-16T07:39:26;6.00;;;4.13;;
53391;SDS011;41667;51.922;8.850;2024-02-16T07:41:51;5.43;;;3.40;;
53391;SDS011;41667;51.922;8.850;2024-02-16T07:44:16;5.18;;;3.85;;
53391;SDS011;41667;51.922;8.850;2024-02-16T07:46:42;4.65;;;3.63;;
53391;SDS011;41667;51.922;8.850;2024-02-16T07:49:07;6.38;;;3.75;;
53391;SDS011;41667;51.922;8.850;2024-02-16T07:51:32;3.80;;;3.50;;
53391;SDS011;41667;51.922;8.850;2024-02-16T07:53:58;7.35;;;3.22;;
53391;SDS011;41667;51.922;8.850;2024-02-16T07:56:23;7.30;;;3.00;;
53391;SDS011;41667;51.922;8.850;2024-02-16T07:58:48;6.47;;;3.03;;
53391;SDS011;41667;51.922;8.850;2024-02-16T08:01:14;6.78;;;3.90;;
53391;SDS011;41667;51.922;8.850;2024-02-16T08:03:40;5.57;;;2.70;;
53391;SDS011;41667;51.922;8.850;2024-02-16T08:06:05;5.18;;;2.40;;
53391;SDS011;41667;51.922;8.850;2024-02-16T08:08:31;4.70;;;2.30;;
53391;SDS011;41667;51.922;8.850;2024-02-16T08:10:56;4.68;;;2.47;;
53391;SDS011;41667;51.922;8.850;2024-02-16T08:13:21;4.32;;;2.47;;
53391;SDS011;41667;51.922;8.850;2024-02-16T08:15:47;6.10;;;2.40;;
53391;SDS011;41667;51.922;8.850;2024-02-16T08:18:13;2.80;;;1.80;;
53391;SDS011;41667;51.922;8.850;2024-02-16T08:20:38;1.20;;;1.20;;
53391;SDS011;41667;51.922;8.850;2024-02-16T08:23:04;2.00;;;1.55;;
53391;SDS011;41667;51.922;8.850;2024-02-16T08:25:29;2.63;;;1.50;;
53391;SDS011;41667;51.922;8.850;2024-02-16T08:27:55;1.38;;;1.27;;
53391;SDS011;41667;51.922;8.850;2024-02-16T08:30:20;1.42;;;1.15;;
53391;SDS011;41667;51.922;8.850;2024-02-16T08:32:46;0.93;;;0.90;;
53391;SDS011;41667;51.922;8.850;2024-02-16T08:35:11;4.82;;;1.20;;
53391;SDS011;41667;51.922;8.850;2024-02-16T08:37:39;0.90;;;0.90;;
53391;SDS011;41667;51.922;8.850;2024-02-16T08:40:04;0.90;;;0.90;;
53391;SDS011;41667;51.922;8.850;2024-02-16T08:42:30;1.10;;;1.00;;
53391;SDS011;41667;51.922;8.850;2024-02-16T08:44:56;1.25;;;0.90;;
53391;SDS011;41667;51.922;8.850;2024-02-16T08:47:23;1.27;;;1.20;;
53391;SDS011;41667;51.922;8.850;2024-02-16T08:49:48;1.38;;;1.20;;
53391;SDS011;41667;51.922;8.850;2024-02-16T08:52:13;1.25;;;1.15;;
53391;SDS011;41667;51.922;8.850;2024-02-16T08:54:39;1.45;;;1.05;;
53391;SDS011;41667;51.922;8.850;2024-02-16T08:57:04;1.08;;;1.02;;
53391;SDS011;41667;51.922;8.850;2024-02-16T08:59:30;1.13;;;1.10;;
53391;SDS011;41667;51.922;8.850;2024-02-16T09:01:56;2.28;;;1.00;;
53391;SDS011;41667;51.922;8.850;2024-02-16T09:04:21;1.30;;;1.30;;
53391;SDS011;41667;51.922;8.850;2024-02-16T09:06:47;1.02;;;1.02;;
53391;SDS011;41667;51.922;8.850;2024-02-16T09:09:14;1.20;;;1.10;;
53391;SDS011;41667;51.922;8.850;2024-02-16T09:11:40;0.93;;;0.77;;
53391;SDS011;41667;51.922;8.850;2024-02-16T09:14:05;1.45;;;1.00;;
53391;SDS011;41667;51.922;8.850;2024-02-16T09:16:30;2.75;;;1.52;;
53391;SDS011;41667;51.922;8.850;2024-02-16T09:18:57;0.98;;;0.98;;
53391;SDS011;41667;51.922;8.850;2024-02-16T09:21:23;3.03;;;1.20;;
53391;SDS011;41667;51.922;8.850;2024-02-16T09:23:51;2.10;;;1.33;;
53391;SDS011;41667;51.922;8.850;2024-02-16T09:26:17;2.63;;;1.00;;
53391;SDS011;41667;51.922;8.850;2024-02-16T09:28:43;1.50;;;1.42;;
53391;SDS011;41667;51.922;8.850;2024-02-16T09:31:08;2.25;;;1.33;;
53391;SDS011;41667;51.922;8.850;2024-02-16T09:33:34;2.55;;;1.83;;
53391;SDS011;41667;51.922;8.850;2024-02-16T09:36:00;1.00;;;1.00;;
53391;SDS011;41667;51.922;8.850;2024-02-16T09:38:25;1.85;;;1.08;;
53391;SDS011;41667;51.922;8.850;2024-02-16T09:40:50;1.77;;;1.23;;
53391;SDS011;41667;51.922;8.850;2024-02-16T09:43:26;1.10;;;1.00;;
53391;SDS011;41667;51.922;8.850;2024-02-16T09:45:53;2.17;;;1.30;;
53391;SDS011;41667;51.922;8.850;2024-02-16T09:48:19;1.00;;;1.00;;
53391;SDS011;41667;51.922;8.850;2024-02-16T09:50:45;3.20;;;1.60;;
53391;SDS011;41667;51.922;8.850;2024-02-16T09:53:11;1.73;;;1.30;;
53391;SDS011;41667;51.922;8.850;2024-02-16T09:55:36;2.70;;;1.48;;
53391;SDS011;41667;51.922;8.850;2024-02-16T09:58:02;1.10;;;1.10;;
53391;SDS011;41667;51.922;8.850;2024-02-16T10:00:30;2.30;;;1.38;;
53391;SDS011;41667;51.922;8.850;2024-02-16T10:02:55;2.90;;;1.25;;
53391;SDS011;41667;51.922;8.850;2024-02-16T10:05:20;3.42;;;1.20;;
53391;SDS011;41667;51.922;8.850;2024-02-16T10:07:47;1.25;;;1.15;;
53391;SDS011;41667;51.922;8.850;2024-02-16T10:10:22;1.48;;;1.20;;
53391;SDS011;41667;51.922;8.850;2024-02-16T10:12:48;1.80;;;1.15;;
53391;SDS011;41667;51.922;8.850;2024-02-16T10:15:22;2.10;;;1.27;;
53391;SDS011;41667;51.922;8.850;2024-02-16T10:18:01;1.63;;;1.17;;
53391;SDS011;41667;51.922;8.850;2024-02-16T10:20:28;1.27;;;1.10;;
53391;SDS011;41667;51.922;8.850;2024-02-16T10:23:07;0.70;;;0.70;;
53391;SDS011;41667;51.922;8.850;2024-02-16T10:25:36;2.40;;;1.23;;
53391;SDS011;41667;51.922;8.850;2024-02-16T10:28:03;1.95;;;1.45;;
53391;SDS011;41667;51.922;8.850;2024-02-16T10:30:33;1.52;;;1.42;;
53391;SDS011;41667;51.922;8.850;2024-02-16T10:33:00;3.00;;;1.63;;
53391;SDS011;41667;51.922;8.850;2024-02-16T10:35:25;1.60;;;1.38;;
53391;SDS011;41667;51.922;8.850;2024-02-16T10:37:53;1.60;;;1.30;;
53391;SDS011;41667;51.922;8.850;2024-02-16T10:40:20;2.25;;;1.10;;
53391;SDS011;41667;51.922;8.850;2024-02-16T10:42:48;1.65;;;1.40;;
53391;SDS011;41667;51.922;8.850;2024-02-16T10:45:14;2.35;;;2.10;;
53391;SDS011;41667;51.922;8.850;2024-02-16T10:47:40;2.78;;;1.58;;
53391;SDS011;41667;51.922;8.850;2024-02-16T10:50:05;0.90;;;0.90;;
53391;SDS011;41667;51.922;8.850;2024-02-16T10:52:31;2.40;;;1.42;;
53391;SDS011;41667;51.922;8.850;2024-02-16T10:54:57;3.00;;;1.50;;
53391;SDS011;41667;51.922;8.850;2024-02-16T10:57:23;3.60;;;1.40;;
53391;SDS011;41667;51.922;8.850;2024-02-16T10:59:52;1.75;;;1.60;;
53391;SDS011;41667;51.922;8.850;2024-02-16T11:02:17;3.95;;;1.38;;
53391;SDS011;41667;51.922;8.850;2024-02-16T11:04:45;2.47;;;1.25;;
53391;SDS011;41667;51.922;8.850;2024-02-16T11:07:11;5.22;;;1.55;;
53391;SDS011;41667;51.922;8.850;2024-02-16T11:09:38;2.95;;;2.13;;
53391;SDS011;41667;51.922;8.850;2024-02-16T11:12:05;2.10;;;1.35;;
53391;SDS011;41667;51.922;8.850;2024-02-16T11:14:37;5.22;;;1.60;;
53391;SDS011;41667;51.922;8.850;2024-02-16T11:19:42;2.22;;;1.92;;
53391;SDS011;41667;51.922;8.850;2024-02-16T11:22:09;2.92;;;1.40;;
53391;SDS011;41667;51.922;8.850;2024-02-16T11:24:35;1.95;;;0.95;;
53391;SDS011;41667;51.922;8.850;2024-02-16T11:27:01;2.83;;;1.52;;
53391;SDS011;41667;51.922;8.850;2024-02-16T11:29:32;1.90;;;1.70;;
53391;SDS011;41667;51.922;8.850;2024-02-16T11:32:01;7.60;;;1.90;;
53391;SDS011;41667;51.922;8.850;2024-02-16T11:34:30;1.15;;;1.02;;
53391;SDS011;41667;51.922;8.850;2024-02-16T11:36:56;5.00;;;1.77;;
53391;SDS011;41667;51.922;8.850;2024-02-16T11:39:29;3.88;;;1.40;;
53391;SDS011;41667;51.922;8.850;2024-02-16T11:42:00;4.35;;;2.10;;
53391;SDS011;41667;51.922;8.850;2024-02-16T11:44:27;1.92;;;1.60;;
53391;SDS011;41667;51.922;8.850;2024-02-16T11:46:56;2.80;;;1.95;;
53391;SDS011;41667;51.922;8.850;2024-02-16T11:49:22;2.90;;;1.85;;
53391;SDS011;41667;51.922;8.850;2024-02-16T11:51:47;2.33;;;1.77;;
53391;SDS011;41667;51.922;8.850;2024-02-16T11:54:13;1.33;;;1.10;;
53391;SDS011;41667;51.922;8.850;2024-02-16T11:56:38;1.77;;;1.55;;
53391;SDS011;41667;51.922;8.850;2024-02-16T11:59:05;3.53;;;2.05;;
53391;SDS011;41667;51.922;8.850;2024-02-16T12:01:31;7.05;;;1.90;;
53391;SDS011;41667;51.922;8.850;2024-02-16T12:03:59;3.20;;;1.95;;
53391;SDS011;41667;51.922;8.850;2024-02-16T12:06:24;2.03;;;1.83;;
53391;SDS011;41667;51.922;8.850;2024-02-16T12:08:50;4.05;;;1.80;;
53391;SDS011;41667;51.922;8.850;2024-02-16T12:11:17;3.38;;;1.70;;
53391;SDS011;41667;51.922;8.850;2024-02-16T12:13:42;1.83;;;1.65;;
53391;SDS011;41667;51.922;8.850;2024-02-16T12:16:07;4.82;;;1.75;;
53391;SDS011;41667;51.922;8.850;2024-02-16T12:18:33;5.22;;;2.05;;
53391;SDS011;41667;51.922;8.850;2024-02-16T12:21:02;2.50;;;2.30;;
53391;SDS011;41667;51.922;8.850;2024-02-16T12:23:28;6.85;;;1.88;;
53391;SDS011;41667;51.922;8.850;2024-02-16T12:25:55;2.38;;;1.40;;
53391;SDS011;41667;51.922;8.850;2024-02-16T12:28:23;2.13;;;1.92;;
53391;SDS011;41667;51.922;8.850;2024-02-16T12:30:49;2.83;;;1.80;;
53391;SDS011;41667;51.922;8.850;2024-02-16T12:33:15;2.72;;;1.77;;
53391;SDS011;41667;51.922;8.850;2024-02-16T12:35:41;3.50;;;2.05;;
53391;SDS011;41667;51.922;8.850;2024-02-16T12:38:06;4.03;;;1.70;;
53391;SDS011;41667;51.922;8.850;2024-02-16T12:40:32;2.53;;;1.67;;
53391;SDS011;41667;51.922;8.850;2024-02-16T12:42:57;5.15;;;2.15;;
53391;SDS011;41667;51.922;8.850;2024-02-16T12:45:23;9.43;;;1.70;;
53391;SDS011;41667;51.922;8.850;2024-02-16T12:47:48;2.42;;;1.88;;
53391;SDS011;41667;51.922;8.850;2024-02-16T12:50:15;4.68;;;1.80;;
53391;SDS011;41667;51.922;8.850;2024-02-16T12:52:40;5.15;;;2.50;;
53391;SDS011;41667;51.922;8.850;2024-02-16T12:55:06;2.67;;;1.90;;
53391;SDS011;41667;51.922;8.850;2024-02-16T12:57:31;6.43;;;1.75;;
53391;SDS011;41667;51.922;8.850;2024-02-16T12:59:57;3.85;;;3.13;;
53391;SDS011;41667;51.922;8.850;2024-02-16T13:02:22;3.03;;;1.50;;
53391;SDS011;41667;51.922;8.850;2024-02-16T13:04:47;3.88;;;1.95;;
53391;SDS011;41667;51.922;8.850;2024-02-16T13:07:13;6.40;;;2.17;;
53391;SDS011;41667;51.922;8.850;2024-02-16T13:09:38;5.05;;;1.90;;
53391;SDS011;41667;51.922;8.850;2024-02-16T13:12:04;4.38;;;2.80;;
53391;SDS011;41667;51.922;8.850;2024-02-16T13:14:29;6.15;;;2.10;;
53391;SDS011;41667;51.922;8.850;2024-02-16T13:16:54;7.55;;;2.10;;
53391;SDS011;41667;51.922;8.850;2024-02-16T13:19:20;3.00;;;2.60;;
53391;SDS011;41667;51.922;8.850;2024-02-16T13:21:45;2.42;;;1.80;;
53391;SDS011;41667;51.922;8.850;2024-02-16T13:24:10;2.78;;;2.20;;
53391;SDS011;41667;51.922;8.850;2024-02-16T13:26:36;5.15;;;2.40;;
53391;SDS011;41667;51.922;8.850;2024-02-16T13:29:01;6.88;;;2.70;;
53391;SDS011;41667;51.922;8.850;2024-02-16T13:31:26;5.07;;;2.47;;
53391;SDS011;41667;51.922;8.850;2024-02-16T13:33:53;3.35;;;2.33;;
53391;SDS011;41667;51.922;8.850;2024-02-16T13:36:18;6.50;;;2.40;;
53391;SDS011;41667;51.922;8.850;2024-02-16T13:38:43;4.22;;;2.17;;
53391;SDS011;41667;51.922;8.850;2024-02-16T13:41:09;5.95;;;2.45;;
53391;SDS011;41667;51.922;8.850;2024-02-16T13:43:34;3.40;;;2.33;;
53391;SDS011;41667;51.922;8.850;2024-02-16T13:46:00;10.20;;;2.70;;
53391;SDS011;41667;51.922;8.850;2024-02-16T13:48:26;2.70;;;2.20;;
53391;SDS011;41667;51.922;8.850;2024-02-16T13:50:53;6.20;;;2.05;;
53391;SDS011;41667;51.922;8.850;2024-02-16T13:53:19;13.15;;;3.13;;
53391;SDS011;41667;51.922;8.850;2024-02-16T13:55:47;6.35;;;2.60;;
53391;SDS011;41667;51.922;8.850;2024-02-16T13:58:13;6.97;;;2.72;;
53391;SDS011;41667;51.922;8.850;2024-02-16T14:00:38;4.43;;;2.85;;
53391;SDS011;41667;51.922;8.850;2024-02-16T14:03:07;5.18;;;2.42;;
53391;SDS011;41667;51.922;8.850;2024-02-16T14:05:34;3.30;;;2.30;;
53391;SDS011;41667;51.922;8.850;2024-02-16T14:08:03;5.60;;;2.28;;
53391;SDS011;41667;51.922;8.850;2024-02-16T14:10:29;4.97;;;3.28;;
53391;SDS011;41667;51.922;8.850;2024-02-16T14:12:55;4.85;;;2.38;;
53391;SDS011;41667;51.922;8.850;2024-02-16T14:15:20;5.00;;;2.35;;
53391;SDS011;41667;51.922;8.850;2024-02-16T14:17:45;6.05;;;2.65;;
53391;SDS011;41667;51.922;8.850;2024-02-16T14:20:11;8.80;;;3.17;;
53391;SDS011;41667;51.922;8.850;2024-02-16T14:22:36;7.15;;;2.90;;
53391;SDS011;41667;51.922;8.850;2024-02-16T14:25:02;6.13;;;3.28;;
53391;SDS011;41667;51.922;8.850;2024-02-16T14:27:28;6.63;;;3.03;;
53391;SDS011;41667;51.922;8.850;2024-02-16T14:29:54;7.15;;;2.55;;
53391;SDS011;41667;51.922;8.850;2024-02-16T14:32:20;4.68;;;2.35;;
53391;SDS011;41667;51.922;8.850;2024-02-16T14:34:45;5.25;;;2.47;;
53391;SDS011;41667;51.922;8.850;2024-02-16T14:37:10;4.93;;;3.20;;
53391;SDS011;41667;51.922;8.850;2024-02-16T14:39:36;7.45;;;3.47;;
53391;SDS011;41667;51.922;8.850;2024-02-16T14:42:01;8.73;;;3.13;;
53391;SDS011;41667;51.922;8.850;2024-02-16T14:44:26;4.97;;;2.95;;
53391;SDS011;41667;51.922;8.850;2024-02-16T14:46:52;3.53;;;2.67;;